Time;durP1;ratioP1;P1;durP2;ratioP2;P2;SDS_P1;SDS_P2;PMS_P1;PMS_P2;Temp;Humidity;BMP_temperature;BMP_pressure;BME280_temperature;BME280_humidity;BME280_pressure;Samples;Min_cycle;Max_cycle;Signal;HPM_P1;HPM_P2
2021/06/18 09:46:51;;;;;;;7.57;4.72;;;;;;;30.97;45.49;101295.75;5117660;27;20350;-70
2021/06/18 09:49:29;;;;;;;5.35;4.82;;;;;;;31.20;44.21;101297.91;5092890;28;20040;-71
2021/06/18 09:52:02;;;;;;;10.75;4.95;;;;;;;31.29;41.67;101297.34;5102979;28;20059;-71
2021/06/18 09:54:31;;;;;;;9.68;4.45;;;;;;;31.18;42.96;101288.44;5103525;28;20060;-72
2021/06/18 09:57:17;;;;;;;7.70;4.20;;;;;;;31.08;40.98;101278.41;5099382;28;20068;-72
2021/06/18 09:59:54;;;;;;;4.95;4.53;;;;;;;31.35;40.55;101277.28;5087570;28;20476;-74
2021/06/18 10:02:21;;;;;;;8.68;4.18;;;;;;;31.66;42.09;101278.06;5095161;28;20051;-72
2021/06/18 10:04:49;;;;;;;5.20;3.80;;;;;;;31.82;40.99;101276.13;5100000;28;20226;-72
2021/06/18 10:07:16;;;;;;;10.35;4.30;;;;;;;32.00;38.62;101274.69;5098803;28;20046;-72
2021/06/18 10:09:42;;;;;;;6.20;4.18;;;;;;;32.07;38.36;101275.22;5070693;28;20170;-72
2021/06/18 10:12:09;;;;;;;7.15;4.20;;;;;;;32.14;37.70;101275.75;5099023;28;20552;-72
2021/06/18 10:14:35;;;;;;;8.80;4.18;;;;;;;32.27;37.58;101278.91;5100516;28;20052;-72
2021/06/18 10:17:01;;;;;;;7.68;4.13;;;;;;;32.40;38.35;101278.31;5101765;28;20046;-71
2021/06/18 10:19:30;;;;;;;5.32;4.20;;;;;;;32.44;38.36;101278.56;5100110;28;20050;-72
2021/06/18 10:22:06;;;;;;;5.22;4.00;;;;;;;32.47;37.87;101286.94;5102789;28;20085;-71
2021/06/18 10:24:35;;;;;;;5.78;3.70;;;;;;;32.66;37.60;101270.84;5091894;28;20488;-72
2021/06/18 10:27:02;;;;;;;4.88;3.67;;;;;;;32.89;36.64;101269.31;5102386;28;20135;-72
2021/06/18 10:29:33;;;;;;;9.27;4.15;;;;;;;32.86;37.49;101263.63;5099386;28;20040;-72
2021/06/18 10:32:27;;;;;;;5.05;3.35;;;;;;;32.99;36.08;101262.97;5102342;28;20031;-72
2021/06/18 10:34:54;;;;;;;5.70;3.20;;;;;;;33.10;35.01;101261.00;5082132;28;20032;-72
2021/06/18 10:37:22;;;;;;;5.38;3.47;;;;;;;33.17;35.33;101261.47;5083395;28;20040;-71
2021/06/18 10:39:56;;;;;;;4.22;3.50;;;;;;;33.13;35.71;101258.53;5094054;28;20043;-73
2021/06/18 10:42:23;;;;;;;5.63;3.40;;;;;;;33.22;35.81;101260.63;5105769;28;20039;-71
2021/06/18 10:44:53;;;;;;;7.47;3.70;;;;;;;33.29;34.89;101252.97;5105670;28;20059;-71
2021/06/18 10:47:21;;;;;;;5.35;3.50;;;;;;;33.34;35.78;101252.88;5105628;28;20119;-71
2021/06/18 10:49:47;;;;;;;3.78;3.38;;;;;;;33.45;35.27;101264.47;5092454;28;20472;-69
2021/06/18 10:52:17;;;;;;;5.03;3.80;;;;;;;33.34;35.47;101261.88;5100285;28;20040;-70
2021/06/18 10:55:02;;;;;;;6.82;3.83;;;;;;;33.39;35.30;101260.19;5083386;28;20862;-70
2021/06/18 10:57:29;;;;;;;6.07;3.20;;;;;;;33.42;35.38;101259.59;5091395;28;20089;-70
2021/06/18 11:00:23;;;;;;;7.45;3.45;;;;;;;33.38;33.79;101262.09;5085824;28;20043;-70
2021/06/18 11:02:49;;;;;;;5.63;3.25;;;;;;;33.41;33.49;101261.50;5057673;28;20937;-71
2021/06/18 11:05:14;;;;;;;4.03;3.20;;;;;;;33.49;33.48;101262.78;5105583;28;20032;-71
2021/06/18 11:07:42;;;;;;;5.20;3.38;;;;;;;33.64;34.89;101267.28;5089981;28;20440;-70
2021/06/18 11:10:17;;;;;;;3.38;3.08;;;;;;;33.94;35.54;101266.09;5098099;28;20035;-70
2021/06/18 11:12:45;;;;;;;6.07;3.40;;;;;;;34.16;34.01;101262.03;5089936;28;20426;-70
2021/06/18 11:15:20;;;;;;;3.88;3.22;;;;;;;33.91;33.02;101255.81;5074166;28;20037;-71
2021/06/18 11:17:52;;;;;;;3.63;3.17;;;;;;;34.04;34.27;101246.09;5074831;28;20039;-70
2021/06/18 11:20:24;;;;;;;4.05;3.13;;;;;;;34.10;35.34;101259.34;5079934;28;20116;-70
2021/06/18 11:22:55;;;;;;;4.40;3.30;;;;;;;34.05;34.48;101255.91;5087224;28;20040;-70
2021/06/18 11:25:36;;;;;;;6.53;3.45;;;;;;;34.08;33.57;101253.41;5085391;28;20059;-70
2021/06/18 11:28:31;;;;;;;6.60;3.40;;;;;;;34.21;35.28;101248.34;5088201;28;20531;-71
2021/06/18 11:31:03;;;;;;;3.70;3.40;;;;;;;34.31;35.76;101245.50;5063471;28;20043;-71
2021/06/18 11:33:40;;;;;;;5.97;3.60;;;;;;;34.58;35.37;101246.72;5076670;28;20035;-71
2021/06/18 11:36:07;;;;;;;3.88;3.17;;;;;;;34.43;34.71;101242.31;5076095;28;20199;-71
2021/06/18 11:38:37;;;;;;;6.28;4.07;;;;;;;34.23;33.65;101252.41;5069356;28;20039;-71
2021/06/18 11:41:09;;;;;;;7.55;4.40;;;;;;;34.07;33.80;101243.59;5073465;28;20040;-71
2021/06/18 11:43:35;;;;;;;7.78;4.57;;;;;;;33.85;33.67;101246.91;5081386;28;20456;-70
2021/06/18 11:46:02;;;;;;;9.57;4.65;;;;;;;34.17;33.37;101241.88;5084124;28;20035;-70
2021/06/18 11:48:27;;;;;;;6.90;4.20;;;;;;;34.38;36.09;101236.94;5086951;28;20131;-70
2021/06/18 11:50:53;;;;;;;9.00;4.88;;;;;;;34.58;35.45;101233.91;5069105;28;20128;-70
2021/06/18 11:53:21;;;;;;;8.93;4.20;;;;;;;34.54;34.55;101229.34;5070379;28;20685;-70
2021/06/18 11:55:58;;;;;;;5.93;4.03;;;;;;;34.28;34.94;101236.00;5077103;28;20028;-70
2021/06/18 11:58:34;;;;;;;5.85;3.70;;;;;;;34.18;36.14;101230.69;5085460;28;20039;-71
2021/06/18 12:01:16;;;;;;;8.32;4.10;;;;;;;34.09;34.95;101221.53;5079922;28;20497;-71
2021/06/18 12:03:47;;;;;;;8.05;4.35;;;;;;;34.29;35.14;101218.56;5071716;28;20035;-71
2021/06/18 12:06:35;;;;;;;5.60;4.03;;;;;;;34.42;37.65;101216.22;5080150;28;20033;-71
2021/06/18 12:09:15;;;;;;;8.85;4.57;;;;;;;34.38;36.37;101213.25;5076048;28;20051;-70
2021/06/18 12:12:00;;;;;;;5.68;4.18;;;;;;;34.77;36.82;101223.00;5099764;28;20061;-71
2021/06/18 12:14:41;;;;;;;7.15;3.95;;;;;;;34.83;36.92;101224.53;5083274;28;20128;-71
2021/06/18 12:17:08;;;;;;;9.27;4.45;;;;;;;34.56;36.99;101219.78;5077786;28;20035;-71
2021/06/18 12:19:44;;;;;;;10.18;4.40;;;;;;;34.23;37.73;101219.75;5084746;28;20073;-71
2021/06/18 12:22:18;;;;;;;5.90;4.40;;;;;;;34.35;38.30;101221.22;5086478;28;20115;-71
2021/06/18 12:24:47;;;;;;;8.65;4.60;;;;;;;34.31;37.78;101218.28;5085886;28;20047;-71
2021/06/18 12:27:21;;;;;;;4.93;4.43;;;;;;;34.72;36.29;101209.47;5068932;28;20875;-71
2021/06/18 12:29:52;;;;;;;6.90;4.25;;;;;;;34.98;37.59;101209.00;5078373;28;20591;-71
2021/06/18 12:32:19;;;;;;;5.45;4.47;;;;;;;34.73;35.35;101204.84;5084739;28;20131;-71
2021/06/18 12:34:57;;;;;;;7.07;4.30;;;;;;;35.08;39.04;101215.09;5086252;28;20024;-71
2021/06/18 12:37:24;;;;;;;7.32;3.95;;;;;;;35.25;36.76;101209.09;5086380;28;20035;-71
2021/06/18 12:39:51;;;;;;;6.78;4.63;;;;;;;35.31;33.43;101204.34;5083821;28;20074;-71
2021/06/18 12:42:28;;;;;;;9.43;5.05;;;;;;;35.03;33.05;101209.72;5078620;28;20048;-70
2021/06/18 12:45:09;;;;;;;13.45;4.30;;;;;;;35.35;36.36;101218.97;5085263;28;20036;-70
2021/06/18 12:47:37;;;;;;;7.93;4.03;;;;;;;35.27;36.76;101206.84;5083462;28;20036;-71
2021/06/18 12:50:24;;;;;;;11.32;4.72;;;;;;;35.13;36.56;101203.28;5081916;28;20170;-70
2021/06/18 12:52:52;;;;;;;8.57;4.72;;;;;;;35.06;33.59;101197.44;5081058;28;20044;-71
2021/06/18 12:55:49;;;;;;;7.50;4.22;;;;;;;35.15;34.26;101203.81;5084523;28;20032;-71
2021/06/18 12:58:20;;;;;;;10.02;4.40;;;;;;;35.23;32.80;101197.66;5083166;28;20036;-71
2021/06/18 13:00:52;;;;;;;6.82;4.53;;;;;;;35.23;32.74;101196.88;5083069;28;20023;-71
2021/06/18 13:03:39;;;;;;;7.10;4.20;;;;;;;35.70;34.24;101194.84;5076738;28;20818;-70
2021/06/18 13:06:07;;;;;;;6.45;4.10;;;;;;;35.73;34.26;101196.16;5069320;28;20862;-71
2021/06/18 13:08:43;;;;;;;4.57;4.18;;;;;;;35.76;33.92;101190.88;5083144;28;20714;-71
2021/06/18 13:11:43;;;;;;;4.50;3.95;;;;;;;35.65;35.51;101187.53;5081471;28;20493;-72
2021/06/18 13:14:09;;;;;;;7.25;4.43;;;;;;;35.94;33.45;101180.13;5077119;28;20028;-71
2021/06/18 13:16:35;;;;;;;8.55;4.60;;;;;;;36.09;34.44;101181.69;5060269;28;20035;-70
2021/06/18 13:19:01;;;;;;;7.15;4.07;;;;;;;36.12;32.54;101178.38;5070879;28;20541;-70
2021/06/18 13:21:44;;;;;;;7.75;4.35;;;;;;;36.10;37.39;101173.22;5075145;28;20038;-69
2021/06/18 13:24:11;;;;;;;5.85;3.95;;;;;;;36.34;37.78;101177.59;5042569;28;20127;-69
2021/06/18 13:26:37;;;;;;;5.25;4.18;;;;;;;36.49;36.86;101169.03;5083775;28;20553;-70
2021/06/18 13:29:20;;;;;;;8.07;4.38;;;;;;;36.50;38.39;101173.34;5080482;28;20063;-70
2021/06/18 13:31:51;;;;;;;6.50;4.35;;;;;;;36.66;33.04;101172.97;5084195;28;20445;-70
2021/06/18 13:34:16;;;;;;;6.53;3.45;;;;;;;36.70;29.71;101179.47;5084531;28;20035;-70
2021/06/18 13:36:46;;;;;;;6.22;3.83;;;;;;;36.51;31.24;101168.72;5084138;28;20035;-70
2021/06/18 13:39:29;;;;;;;7.78;3.75;;;;;;;36.50;30.41;101165.16;5083606;28;20088;-69
2021/06/18 13:41:54;;;;;;;6.53;3.85;;;;;;;36.61;30.44;101171.16;5085256;28;20032;-70
2021/06/18 13:44:20;;;;;;;9.38;3.92;;;;;;;36.54;30.49;101165.34;5084750;28;20043;-70
2021/06/18 13:46:45;;;;;;;8.10;4.03;;;;;;;36.81;31.77;101158.94;5070372;28;20143;-69
2021/06/18 13:49:12;;;;;;;4.78;4.00;;;;;;;36.91;30.65;101153.19;5081712;28;20055;-70
2021/06/18 13:51:43;;;;;;;6.40;4.38;;;;;;;36.93;31.45;101161.88;5084383;28;20051;-69
2021/06/18 13:54:09;;;;;;;6.57;3.70;;;;;;;37.04;31.79;101162.41;5085723;28;20032;-70
2021/06/18 13:56:36;;;;;;;8.95;4.25;;;;;;;37.02;34.10;101159.19;5082298;28;20272;-70
2021/06/18 13:59:01;;;;;;;5.40;3.88;;;;;;;37.59;35.34;101164.66;5083118;28;20036;-70
2021/06/18 14:01:27;;;;;;;5.78;4.00;;;;;;;37.56;31.56;101159.84;5081857;28;20048;-70
2021/06/18 14:03:53;;;;;;;5.20;3.70;;;;;;;37.59;31.49;101148.25;5078816;28;20028;-70
2021/06/18 14:06:18;;;;;;;7.32;4.05;;;;;;;37.73;30.25;101144.59;5070972;28;20081;-70
2021/06/18 14:08:45;;;;;;;6.65;3.65;;;;;;;37.67;31.66;101143.13;5083536;28;20089;-70
2021/06/18 14:11:15;;;;;;;6.18;3.55;;;;;;;37.17;32.09;101150.56;5097448;28;20039;-70
2021/06/18 14:13:41;;;;;;;4.85;3.85;;;;;;;36.28;35.59;101143.31;5083275;28;20059;-70
2021/06/18 14:16:08;;;;;;;6.07;3.70;;;;;;;35.60;38.28;101145.91;5084570;28;20040;-70
2021/06/18 14:18:34;;;;;;;4.10;3.60;;;;;;;35.40;39.15;101130.81;5079302;28;20141;-70
2021/06/18 14:21:00;;;;;;;6.25;3.90;;;;;;;35.40;40.41;101139.00;5083793;28;20071;-69
2021/06/18 14:23:26;;;;;;;4.38;3.88;;;;;;;35.72;36.46;101132.59;5065115;28;20059;-69
2021/06/18 14:25:52;;;;;;;6.25;4.13;;;;;;;35.53;38.17;101137.34;5083338;28;20035;-70
2021/06/18 14:28:18;;;;;;;6.47;3.70;;;;;;;35.76;41.17;101140.97;5084709;28;20037;-70
2021/06/18 14:30:44;;;;;;;4.25;3.60;;;;;;;36.26;37.94;101135.44;5077995;28;20048;-70
2021/06/18 14:33:12;;;;;;;8.00;4.50;;;;;;;36.99;30.89;101136.00;5088069;28;20039;-70
2021/06/18 14:35:39;;;;;;;7.32;4.38;;;;;;;37.14;33.98;101120.31;5087891;28;20036;-70
2021/06/18 14:38:05;;;;;;;4.30;3.83;;;;;;;37.61;32.57;101117.84;5088686;28;20508;-70
2021/06/18 14:40:31;;;;;;;6.07;3.97;;;;;;;37.96;29.77;101121.41;5087368;28;20068;-70
2021/06/18 14:42:57;;;;;;;7.47;4.20;;;;;;;37.77;30.93;101124.47;5086807;28;20044;-70
2021/06/18 14:45:22;;;;;;;6.63;4.18;;;;;;;37.28;33.41;101131.13;5086419;28;20028;-70
2021/06/18 14:47:48;;;;;;;5.03;3.78;;;;;;;37.32;35.95;101124.72;5087183;28;20044;-69
2021/06/18 14:50:13;;;;;;;6.65;3.60;;;;;;;37.02;35.75;101123.66;5076952;28;20048;-69
2021/06/18 14:52:40;;;;;;;6.82;3.80;;;;;;;36.24;33.49;101127.59;5067336;28;20040;-69
2021/06/18 14:55:08;;;;;;;4.40;3.95;;;;;;;35.24;39.19;101127.59;5067424;28;20079;-69
2021/06/18 14:57:33;;;;;;;6.30;3.80;;;;;;;34.64;41.05;101125.69;5070852;28;20070;-70
2021/06/18 14:59:59;;;;;;;4.30;3.90;;;;;;;34.52;45.25;101121.50;5082217;28;20590;-70
2021/06/18 15:02:25;;;;;;;5.65;3.70;;;;;;;34.25;44.96;101126.91;5087164;28;20033;-70
2021/06/18 15:04:50;;;;;;;5.95;3.90;;;;;;;33.83;46.92;101121.25;5078701;28;20705;-70
2021/06/18 15:07:16;;;;;;;5.97;4.10;;;;;;;33.67;48.33;101122.56;5078140;28;20100;-70
2021/06/18 15:09:44;;;;;;;7.80;4.20;;;;;;;33.46;46.76;101111.13;5094513;28;20407;-70
2021/06/18 15:12:10;;;;;;;5.30;4.53;;;;;;;33.02;47.39;101106.72;5097885;28;20032;-70
2021/06/18 15:14:35;;;;;;;5.18;4.53;;;;;;;32.57;50.38;101096.88;5086443;28;20051;-70
2021/06/18 15:17:01;;;;;;;5.05;4.40;;;;;;;32.23;50.19;101087.91;5077745;28;20546;-70
2021/06/18 15:19:27;;;;;;;5.30;4.70;;;;;;;32.07;49.87;101085.31;5078658;28;20032;-70
2021/06/18 15:21:52;;;;;;;10.98;4.65;;;;;;;31.80;51.28;101083.06;5076043;28;20098;-70
2021/06/18 15:24:18;;;;;;;6.07;4.85;;;;;;;31.91;47.59;101081.88;5080069;28;20028;-70
2021/06/18 15:26:44;;;;;;;6.70;4.55;;;;;;;31.88;50.39;101082.44;5065051;28;20044;-69
2021/06/18 15:29:09;;;;;;;5.70;4.72;;;;;;;31.90;52.15;101080.25;5081038;28;20447;-69
2021/06/18 15:31:35;;;;;;;7.80;4.80;;;;;;;32.02;50.17;101077.22;5086259;28;20046;-69
2021/06/18 15:34:00;;;;;;;5.18;4.63;;;;;;;31.80;49.94;101078.44;5087993;28;20370;-69
2021/06/18 15:36:26;;;;;;;8.25;5.13;;;;;;;31.65;50.46;101077.69;5085478;28;20366;-69
2021/06/18 15:38:51;;;;;;;7.13;5.28;;;;;;;31.57;49.96;101069.09;5087328;28;20036;-69
2021/06/18 15:41:17;;;;;;;8.98;5.30;;;;;;;31.36;50.67;101072.94;5082154;28;20032;-69
2021/06/18 15:43:42;;;;;;;9.65;5.20;;;;;;;31.24;50.04;101073.28;5083948;28;20036;-69
2021/06/18 15:46:08;;;;;;;12.20;5.13;;;;;;;31.03;50.79;101061.72;5086646;28;20056;-69
2021/06/18 15:48:35;;;;;;;40.72;7.47;;;;;;;30.91;51.76;101056.63;5086265;28;20132;-70
2021/06/18 15:51:01;;;;;;;6.90;4.90;;;;;;;31.22;48.75;101073.56;5076047;28;20038;-71
2021/06/18 15:53:28;;;;;;;5.50;5.00;;;;;;;31.69;51.59;101076.06;5080506;28;20136;-69
2021/06/18 15:55:54;;;;;;;7.30;4.68;;;;;;;31.92;50.25;101069.13;5087266;28;20085;-70
2021/06/18 15:58:19;;;;;;;8.85;4.75;;;;;;;32.31;50.68;101068.31;5087829;28;20035;-69
2021/06/18 16:00:45;;;;;;;9.63;5.10;;;;;;;32.70;48.60;101065.53;5085036;28;20071;-69
2021/06/18 16:03:10;;;;;;;5.60;4.82;;;;;;;32.76;50.17;101053.50;5086657;28;20048;-70
2021/06/18 16:05:36;;;;;;;12.98;4.72;;;;;;;32.81;48.75;101057.25;5079701;28;20035;-71
2021/06/18 16:08:02;;;;;;;7.05;4.70;;;;;;;32.92;49.04;101064.19;5069274;28;20055;-71
2021/06/18 16:10:29;;;;;;;6.47;4.72;;;;;;;33.18;50.10;101064.72;5072046;28;20036;-70
2021/06/18 16:12:54;;;;;;;5.95;4.53;;;;;;;33.27;51.46;101065.69;5086477;28;20047;-69
2021/06/18 16:15:19;;;;;;;6.40;4.60;;;;;;;33.12;49.58;101058.53;5086005;28;20066;-70
2021/06/18 16:17:45;;;;;;;5.95;4.68;;;;;;;32.92;48.38;101050.59;5087205;28;20039;-69
2021/06/18 16:20:11;;;;;;;10.00;4.57;;;;;;;32.97;52.11;101043.19;5077801;28;20050;-70
2021/06/18 16:22:39;;;;;;;9.88;4.50;;;;;;;32.96;45.01;101066.06;5085326;28;20036;-70
2021/06/18 16:25:05;;;;;;;5.10;4.10;;;;;;;32.95;46.41;101069.84;5085700;28;20047;-70
2021/06/18 16:27:31;;;;;;;6.70;4.13;;;;;;;33.20;41.29;101065.25;5087231;28;20047;-70
2021/06/18 16:29:57;;;;;;;6.15;4.72;;;;;;;33.20;41.39;101059.81;5081913;28;20059;-70
2021/06/18 16:32:23;;;;;;;6.35;4.40;;;;;;;33.51;39.91;101053.94;5088766;28;20119;-70
2021/06/18 16:34:49;;;;;;;4.88;4.10;;;;;;;33.40;40.51;101056.00;5082563;28;20036;-70
2021/06/18 16:37:14;;;;;;;6.40;4.75;;;;;;;33.46;38.77;101054.84;5090084;28;20117;-70
2021/06/18 16:39:41;;;;;;;6.35;4.70;;;;;;;33.41;38.30;101057.63;5086496;28;20451;-69
2021/06/18 16:42:07;;;;;;;4.88;4.35;;;;;;;32.95;40.22;101050.03;5089833;28;20458;-69
2021/06/18 16:44:32;;;;;;;5.18;4.72;;;;;;;32.56;41.25;101049.06;5077427;28;20036;-70
2021/06/18 16:46:58;;;;;;;8.00;4.60;;;;;;;32.31;46.60;101049.31;5075749;28;20049;-70
2021/06/18 16:49:23;;;;;;;8.30;4.60;;;;;;;32.08;41.47;101042.72;5076428;28;20016;-70
2021/06/18 16:51:49;;;;;;;8.10;5.10;;;;;;;31.88;42.34;101044.47;5075553;28;20039;-70
2021/06/18 16:54:14;;;;;;;9.98;5.38;;;;;;;31.71;41.98;101042.16;5074288;28;20127;-70
2021/06/18 16:56:40;;;;;;;6.07;4.60;;;;;;;31.47;49.45;101049.34;5072660;28;20044;-69
2021/06/18 16:59:06;;;;;;;6.95;4.80;;;;;;;31.12;50.24;101051.94;5061423;28;20040;-70
2021/06/18 17:01:35;;;;;;;7.95;4.80;;;;;;;30.93;50.10;101054.44;5073304;28;20086;-71
2021/06/18 17:04:01;;;;;;;5.53;4.88;;;;;;;30.71;52.41;101046.59;5079306;28;20032;-70
2021/06/18 17:06:27;;;;;;;7.10;5.18;;;;;;;30.65;47.57;101040.41;5068589;28;20023;-70
2021/06/18 17:08:53;;;;;;;6.93;4.78;;;;;;;30.68;52.13;101052.56;5072090;28;20656;-69
2021/06/18 17:11:20;;;;;;;8.32;4.97;;;;;;;30.55;52.13;101053.13;5082798;28;20028;-70
2021/06/18 17:14:29;;;;;;;5.47;4.90;;;;;;;30.42;52.31;101062.63;5085814;28;20093;-71
2021/06/18 17:16:55;;;;;;;7.70;5.35;;;;;;;30.29;54.22;101055.84;5082982;28;20040;-69
2021/06/18 17:19:20;;;;;;;7.97;5.40;;;;;;;30.04;55.23;101045.81;5074796;28;20044;-70
2021/06/18 17:21:46;;;;;;;8.68;5.30;;;;;;;29.82;56.06;101046.91;5076745;28;20445;-71
2021/06/18 17:24:15;;;;;;;11.35;5.53;;;;;;;29.67;57.21;101039.53;5085094;28;20488;-69
2021/06/18 17:26:41;;;;;;;8.52;5.20;;;;;;;29.52;56.16;101039.50;5084012;28;20044;-72
2021/06/18 17:29:07;;;;;;;7.53;5.28;;;;;;;29.45;55.92;101041.66;5075468;28;20471;-68
2021/06/18 17:31:33;;;;;;;8.95;5.65;;;;;;;29.30;57.50;101043.22;5082933;28;20020;-69
2021/06/18 17:33:59;;;;;;;10.15;4.88;;;;;;;29.21;58.08;101050.19;5084984;28;20036;-71
2021/06/18 17:36:24;;;;;;;6.93;5.13;;;;;;;29.07;60.26;101044.44;5073859;28;20032;-70
2021/06/18 17:38:50;;;;;;;13.38;5.50;;;;;;;28.93;60.36;101057.63;5074975;28;20754;-70
2021/06/18 17:41:16;;;;;;;6.63;5.07;;;;;;;28.82;58.04;101060.50;5077184;28;20047;-71
2021/06/18 17:43:43;;;;;;;9.50;5.85;;;;;;;28.72;57.96;101059.38;5069203;28;20025;-72
2021/06/18 17:46:09;;;;;;;7.97;5.10;;;;;;;28.72;57.26;101058.56;5069886;28;20036;-69
2021/06/18 17:48:35;;;;;;;7.35;5.00;;;;;;;28.63;58.42;101063.66;5079754;28;20108;-70
2021/06/18 17:51:01;;;;;;;10.05;5.38;;;;;;;28.57;58.31;101069.25;5077325;28;20048;-71
2021/06/18 17:53:27;;;;;;;10.57;5.50;;;;;;;28.67;58.91;101064.75;5074224;28;20689;-72
2021/06/18 17:55:55;;;;;;;16.80;5.20;;;;;;;28.58;57.87;101065.50;5080731;28;20032;-73
2021/06/18 17:58:22;;;;;;;8.73;5.60;;;;;;;28.61;58.79;101070.34;5072318;28;20081;-71
2021/06/18 18:00:47;;;;;;;7.85;5.82;;;;;;;28.61;60.30;101084.66;5059116;28;20201;-71
2021/06/18 18:03:13;;;;;;;8.10;6.25;;;;;;;28.78;57.44;101094.50;5076350;28;20469;-71
2021/06/18 18:05:38;;;;;;;7.53;6.18;;;;;;;28.71;58.85;101095.53;5070819;28;20028;-70
2021/06/18 18:08:04;;;;;;;6.63;5.78;;;;;;;28.69;55.04;101111.19;5067793;28;20040;-71
2021/06/18 18:10:31;;;;;;;17.05;7.63;;;;;;;28.40;60.97;101116.03;5075184;28;20032;-70
2021/06/18 18:12:58;;;;;;;22.83;10.07;;;;;;;27.45;69.96;101120.94;5084151;28;20089;-70
2021/06/18 18:15:24;;;;;;;26.05;11.88;;;;;;;26.16;78.63;101118.94;5062494;28;20028;-72
2021/06/18 18:17:50;;;;;;;30.10;12.77;;;;;;;25.44;83.38;101095.22;5078361;28;20055;-72
2021/06/18 18:20:16;;;;;;;21.45;12.18;;;;;;;25.01;86.88;101115.19;5051085;28;20139;-72
2021/06/18 18:22:42;;;;;;;23.75;11.93;;;;;;;24.70;87.84;101121.72;5078023;28;20093;-72
2021/06/18 18:25:11;;;;;;;19.42;12.43;;;;;;;24.39;87.87;101121.75;5080153;28;20823;-72
2021/06/18 18:27:37;;;;;;;16.25;9.82;;;;;;;24.28;85.55;101119.84;5083453;28;20047;-72
2021/06/18 18:30:05;;;;;;;19.90;10.65;;;;;;;24.23;85.99;101111.66;5074699;28;20041;-72
2021/06/18 18:32:30;;;;;;;14.73;9.77;;;;;;;24.08;86.58;101110.19;5084111;28;20071;-71
2021/06/18 18:34:56;;;;;;;24.63;11.23;;;;;;;23.95;86.64;101107.72;5076650;28;20120;-71
2021/06/18 18:37:21;;;;;;;14.85;10.55;;;;;;;23.73;87.57;101091.28;5082710;28;20385;-71
2021/06/18 18:39:47;;;;;;;15.77;10.75;;;;;;;23.63;88.91;101094.47;5083705;28;20067;-71
2021/06/18 18:42:12;;;;;;;28.98;11.30;;;;;;;23.70;89.66;101089.06;5080050;28;20112;-71
2021/06/18 18:44:39;;;;;;;23.27;12.70;;;;;;;23.77;89.79;101092.47;5076339;28;20105;-71
2021/06/18 18:47:04;;;;;;;25.10;14.02;;;;;;;23.84;90.99;101097.75;5068833;28;20078;-71
2021/06/18 18:49:30;;;;;;;22.63;13.85;;;;;;;23.85;91.57;101088.69;5087632;28;20051;-70
2021/06/18 18:51:56;;;;;;;16.92;12.30;;;;;;;23.90;91.10;101080.78;5073778;28;20552;-71
2021/06/18 18:54:32;;;;;;;18.00;13.48;;;;;;;23.88;90.25;101075.66;5075060;28;20039;-71
2021/06/18 18:57:03;;;;;;;18.15;13.50;;;;;;;23.80;90.43;101072.47;5071697;28;20021;-72
2021/06/18 18:59:28;;;;;;;22.88;13.90;;;;;;;23.68;91.76;101070.53;5082426;28;20044;-70
2021/06/18 19:01:54;;;;;;;29.77;13.68;;;;;;;23.57;91.32;101073.97;5082509;28;20038;-71
2021/06/18 19:04:20;;;;;;;20.30;12.82;;;;;;;23.45;91.74;101065.88;5083981;28;20044;-71
2021/06/18 19:06:45;;;;;;;26.65;14.93;;;;;;;23.41;93.09;101064.66;5072383;28;20028;-70
2021/06/18 19:09:11;;;;;;;29.35;16.52;;;;;;;23.41;94.20;101062.00;5075669;28;20039;-70
2021/06/18 19:11:36;;;;;;;25.30;15.35;;;;;;;23.46;94.86;101070.19;5073369;28;20866;-71
2021/06/18 19:14:02;;;;;;;27.80;17.98;;;;;;;23.44;95.94;101072.25;5080054;28;20040;-70
2021/06/18 19:16:29;;;;;;;25.27;17.67;;;;;;;23.49;97.02;101068.94;5067011;28;20036;-70
2021/06/18 19:18:55;;;;;;;23.85;16.95;;;;;;;23.54;96.64;101061.03;5072116;28;20039;-71
2021/06/18 19:21:20;;;;;;;20.17;15.77;;;;;;;23.57;95.19;101065.13;5075744;28;20127;-70
2021/06/18 19:23:46;;;;;;;23.98;15.40;;;;;;;23.53;93.38;101072.78;5081069;28;20032;-71
2021/06/18 19:26:13;;;;;;;20.90;15.57;;;;;;;23.52;94.28;101069.28;5075615;28;20031;-70
2021/06/18 19:28:40;;;;;;;16.33;14.18;;;;;;;23.48;93.45;101075.31;5082947;28;20035;-70
2021/06/18 19:31:06;;;;;;;18.30;13.45;;;;;;;23.43;93.15;101084.03;5077729;28;20093;-70
2021/06/18 19:33:32;;;;;;;17.48;13.45;;;;;;;23.36;92.56;101072.56;5076110;28;20036;-70
2021/06/18 19:35:57;;;;;;;20.67;14.20;;;;;;;23.34;93.59;101069.31;5066524;28;20173;-70
2021/06/18 19:38:22;;;;;;;18.63;14.48;;;;;;;23.23;93.58;101075.41;5082814;28;20905;-70
2021/06/18 19:40:48;;;;;;;20.27;14.02;;;;;;;23.21;93.60;101067.59;5081669;28;20047;-71
2021/06/18 19:43:13;;;;;;;17.15;14.30;;;;;;;23.18;94.82;101080.59;5081891;28;20055;-70
2021/06/18 19:45:39;;;;;;;15.82;14.02;;;;;;;23.08;94.72;101081.91;5067826;28;20037;-71
2021/06/18 19:48:05;;;;;;;17.30;14.20;;;;;;;22.95;95.79;101084.69;5079326;28;20048;-71
2021/06/18 19:50:32;;;;;;;16.52;14.23;;;;;;;22.87;95.67;101090.34;5067641;28;20032;-71
2021/06/18 19:52:58;;;;;;;19.40;14.48;;;;;;;22.79;96.05;101091.41;5050116;28;20036;-70
2021/06/18 19:55:24;;;;;;;19.88;14.95;;;;;;;22.72;96.23;101096.00;5068150;28;20035;-71
2021/06/18 19:57:49;;;;;;;22.38;16.70;;;;;;;22.66;96.47;101086.16;5061161;28;20044;-70
2021/06/18 20:00:16;;;;;;;16.20;14.45;;;;;;;22.73;96.18;101093.13;5072148;28;20032;-71
2021/06/18 20:02:42;;;;;;;21.40;15.00;;;;;;;22.82;96.17;101096.31;5080939;28;20036;-70
2021/06/18 20:05:09;;;;;;;17.88;15.75;;;;;;;22.88;96.85;101087.41;5077685;28;20028;-70
2021/06/18 20:07:35;;;;;;;18.63;15.80;;;;;;;22.81;97.48;101089.34;5057556;28;20067;-71
2021/06/18 20:10:00;;;;;;;19.48;16.42;;;;;;;22.81;97.85;101086.69;5056692;28;20119;-71
2021/06/18 20:12:29;;;;;;;21.17;15.30;;;;;;;22.78;98.01;101088.97;5072489;28;20032;-71
2021/06/18 20:14:56;;;;;;;18.58;16.55;;;;;;;22.77;97.93;101090.00;5059026;28;20036;-71
2021/06/18 20:17:22;;;;;;;20.83;17.45;;;;;;;22.76;97.81;101089.19;5051678;28;20028;-71
2021/06/18 20:19:47;;;;;;;21.40;17.05;;;;;;;22.73;97.91;101098.47;5070713;28;20035;-71
2021/06/18 20:22:13;;;;;;;19.75;17.35;;;;;;;22.73;98.01;101090.47;5078313;28;20071;-71
2021/06/18 20:24:38;;;;;;;20.95;18.10;;;;;;;22.71;97.91;101081.81;5081198;28;20040;-71
2021/06/18 20:27:04;;;;;;;23.75;19.95;;;;;;;22.64;97.92;101077.56;5077514;28;20039;-71
2021/06/18 20:29:30;;;;;;;22.95;18.67;;;;;;;22.64;98.09;101086.41;5077250;28;20036;-70
2021/06/18 20:31:55;;;;;;;22.95;19.67;;;;;;;22.61;98.26;101089.50;5074305;28;20040;-71
2021/06/18 20:34:21;;;;;;;22.70;20.35;;;;;;;22.61;98.36;101091.38;5064988;28;20052;-71
2021/06/18 20:36:46;;;;;;;22.40;20.00;;;;;;;22.62;98.58;101087.66;5075680;28;20068;-71
2021/06/18 20:39:12;;;;;;;21.35;19.05;;;;;;;22.64;98.22;101083.75;5082036;28;20039;-71
2021/06/18 20:41:37;;;;;;;23.35;20.83;;;;;;;22.61;98.58;101078.00;5078551;28;20036;-70
2021/06/18 20:44:03;;;;;;;23.08;19.65;;;;;;;22.63;97.81;101082.09;5073802;28;20035;-70
2021/06/18 20:46:30;;;;;;;22.52;19.30;;;;;;;22.64;97.76;101081.06;5080366;28;20040;-71
2021/06/18 20:48:56;;;;;;;24.15;19.52;;;;;;;22.61;97.83;101081.50;5082422;28;20510;-70
2021/06/18 20:51:22;;;;;;;21.05;18.85;;;;;;;22.59;97.93;101088.91;5072466;28;20755;-71
2021/06/18 20:53:47;;;;;;;21.40;17.90;;;;;;;22.56;97.86;101092.00;5068730;28;20124;-70
2021/06/18 20:56:13;;;;;;;26.38;20.35;;;;;;;22.53;97.96;101087.13;5079370;28;20044;-70
2021/06/18 20:58:40;;;;;;;20.90;17.65;;;;;;;22.46;97.70;101086.34;5080308;28;20039;-70
2021/06/18 21:01:06;;;;;;;20.75;18.00;;;;;;;22.47;97.72;101088.81;5070693;28;20067;-69
2021/06/18 21:03:31;;;;;;;26.23;20.35;;;;;;;22.43;97.49;101086.78;5082189;28;20119;-72
2021/06/18 21:05:57;;;;;;;21.38;19.05;;;;;;;22.42;97.62;101091.31;5072137;28;20047;-72
2021/06/18 21:08:22;;;;;;;21.10;19.08;;;;;;;22.38;97.56;101086.59;5085062;28;20479;-72
2021/06/18 21:10:49;;;;;;;22.52;19.55;;;;;;;22.29;97.97;101089.53;5080867;28;20039;-70